createdAt,value
2022-08-10T00:00:22.177Z,101695.88
2022-08-10T00:02:57.683Z,101695.11
2022-08-10T00:05:43.701Z,101695.17
2022-08-10T00:08:02.139Z,101696.88
2022-08-10T00:10:32.991Z,101693.04
2022-08-10T00:13:04.156Z,101695.05
2022-08-10T00:15:52.266Z,101693.66
2022-08-10T00:18:07.982Z,101689.49
2022-08-10T00:20:38.854Z,101690.42
2022-08-10T00:23:09.717Z,101692.69
2022-08-10T00:25:42.506Z,101692.56
2022-08-10T00:28:13.677Z,101688.70
2022-08-10T00:30:44.738Z,101688.77
2022-08-10T00:33:15.713Z,101686.50
2022-08-10T00:35:46.778Z,101683.14
2022-08-10T00:38:17.801Z,101688.59
2022-08-10T00:40:48.788Z,101684.87
2022-08-10T00:43:23.855Z,101687.13
2022-08-10T00:45:59.041Z,101687.26
2022-08-10T00:48:25.619Z,101686.23
2022-08-10T00:51:00.395Z,101690.50
2022-08-10T00:53:31.421Z,101697.50
2022-08-10T00:57:14.169Z,101694.61
2022-08-10T00:58:36.541Z,101692.72
2022-08-10T01:01:11.670Z,101695.95
2022-08-10T01:04:57.972Z,101694.34
2022-08-10T01:06:35.459Z,101697.72
2022-08-10T01:09:14.997Z,101695.95
2022-08-10T01:12:39.855Z,101684.13
2022-08-10T01:14:45.946Z,101695.83
2022-08-10T01:17:50.581Z,101695.88
2022-08-10T01:20:30.197Z,101692.30
2022-08-10T01:23:20.187Z,101701.87
2022-08-10T01:26:30.491Z,101700.81
2022-08-10T01:29:06.085Z,101700.26
2022-08-10T01:31:45.938Z,101698.13
2022-08-10T01:34:22.417Z,101700.31
2022-08-10T01:36:57.795Z,101703.20
2022-08-10T01:39:32.099Z,101692.42
2022-08-10T01:42:04.697Z,101691.63
2022-08-10T01:44:58.561Z,101698.45
2022-08-10T01:47:53.247Z,101697.34
2022-08-10T01:50:29.711Z,101701.64
2022-08-10T01:53:06.608Z,101701.70
2022-08-10T01:55:40.333Z,101701.02
2022-08-10T01:58:13.678Z,101695.82
2022-08-10T02:00:47.070Z,101700.58
2022-08-10T02:03:20.508Z,101700.52
2022-08-10T02:05:55.918Z,101695.82
2022-08-10T02:08:27.520Z,101697.28
2022-08-10T02:11:01.093Z,101689.42
2022-08-10T02:13:33.083Z,101692.28
2022-08-10T02:16:06.637Z,101694.17
2022-08-10T02:18:39.690Z,101687.52
2022-08-10T02:21:11.885Z,101685.69
2022-08-10T02:23:44.670Z,101688.55
2022-08-10T02:26:18.089Z,101694.20
2022-08-10T02:28:50.062Z,101699.01
2022-08-10T02:31:23.885Z,101701.31
2022-08-10T02:33:59.479Z,101695.07
2022-08-10T02:36:34.241Z,101692.61
2022-08-10T02:39:08.185Z,101704.06
2022-08-10T02:45:18.298Z,101704.97
2022-08-10T02:45:23.851Z,101705.26
2022-08-10T02:47:24.235Z,101699.64
2022-08-10T02:50:10.417Z,101702.97
2022-08-10T02:52:49.568Z,101704.46
2022-08-10T02:55:45.993Z,101700.06
2022-08-10T02:58:19.910Z,101701.37
2022-08-10T03:00:53.913Z,101706.58
2022-08-10T03:03:30.729Z,101707.83
2022-08-10T03:06:04.660Z,101708.70
2022-08-10T03:08:38.429Z,101711.53
2022-08-10T03:11:11.421Z,101723.11
2022-08-10T03:13:43.139Z,101720.53
2022-08-10T03:16:15.903Z,101720.96
2022-08-10T03:18:49.084Z,101714.42
2022-08-10T03:21:22.865Z,101714.14
2022-08-10T03:23:57.183Z,101721.92
2022-08-10T03:26:31.230Z,101721.33
2022-08-10T03:29:07.199Z,101736.35
2022-08-10T03:31:40.090Z,101730.16
2022-08-10T03:34:22.158Z,101736.99
2022-08-10T03:36:45.323Z,101727.21
2022-08-10T03:39:18.693Z,101728.13
2022-08-10T03:41:55.873Z,101733.45
2022-08-10T03:44:31.364Z,101726.62
2022-08-10T03:47:03.960Z,101733.28
2022-08-10T03:49:41.746Z,101738.50
2022-08-10T03:52:13.617Z,101736.03
2022-08-10T03:54:45.687Z,101744.63
2022-08-10T03:57:16.855Z,101736.30
2022-08-10T03:59:50.172Z,101739.20
2022-08-10T04:02:46.987Z,101741.41
2022-08-10T04:04:55.486Z,101744.74
2022-08-10T04:07:27.042Z,101744.37
2022-08-10T04:09:58.766Z,101745.38
2022-08-10T04:12:29.856Z,101735.05
2022-08-10T04:15:00.915Z,101750.22
2022-08-10T04:18:01.281Z,101744.45
2022-08-10T04:20:06.435Z,101747.77
2022-08-10T04:22:39.265Z,101748.55
2022-08-10T04:25:11.911Z,101743.97
2022-08-10T04:27:43.412Z,101743.46
2022-08-10T04:30:14.526Z,101751.36
2022-08-10T04:32:47.535Z,101743.16
2022-08-10T04:35:20.832Z,101740.59
2022-08-10T04:37:52.796Z,101731.24
2022-08-10T04:40:25.339Z,101740.88
2022-08-10T04:43:01.342Z,101734.21
2022-08-10T04:45:48.647Z,101739.34
2022-08-10T04:48:03.277Z,101743.59
2022-08-10T04:50:34.547Z,101745.68
2022-08-10T04:53:06.958Z,101750.78
2022-08-10T04:55:38.870Z,101747.60
2022-08-10T04:58:10.075Z,101748.34
2022-08-10T05:00:43.778Z,101762.66
2022-08-10T05:03:14.751Z,101752.78
2022-08-10T05:05:45.609Z,101756.20
2022-08-10T05:08:18.197Z,101768.28
2022-08-10T05:10:50.498Z,101759.95
2022-08-10T05:13:21.572Z,101764.36
2022-08-10T05:15:54.131Z,101762.89
2022-08-10T05:18:25.234Z,101764.80
2022-08-10T05:20:56.178Z,101769.69
2022-08-10T05:23:27.008Z,101767.06
2022-08-10T05:25:57.963Z,101770.18
2022-08-10T05:28:34.037Z,101779.65
2022-08-10T05:31:03.082Z,101786.07
2022-08-10T05:33:34.506Z,101785.23
2022-08-10T05:36:06.398Z,101784.67
2022-08-10T05:38:38.333Z,101791.42
2022-08-10T05:41:09.450Z,101787.94
2022-08-10T05:43:41.048Z,101784.12
2022-08-10T05:46:18.349Z,101778.59
2022-08-10T05:48:57.048Z,101777.61
2022-08-10T05:51:21.358Z,101779.52
2022-08-10T05:54:03.208Z,101772.22
2022-08-10T05:56:24.898Z,101782.12
2022-08-10T05:58:56.575Z,101768.67
2022-08-10T06:01:29.597Z,101781.15
2022-08-10T06:04:02.463Z,101780.13
2022-08-10T06:06:35.587Z,101774.62
2022-08-10T06:09:10.414Z,101773.27
2022-08-10T06:12:27.165Z,101782.36
2022-08-10T06:14:34.806Z,101790.95
2022-08-10T06:17:08.273Z,101783.91
2022-08-10T06:19:39.797Z,101786.11
2022-08-10T06:22:11.825Z,101787.94
2022-08-10T06:25:21.506Z,101786.86
2022-08-10T06:27:19.964Z,101782.49
2022-08-10T06:29:54.158Z,101786.42
2022-08-10T06:32:29.005Z,101789.92
2022-08-10T06:35:02.321Z,101785.57
2022-08-10T06:37:34.337Z,101778.39
2022-08-10T06:40:06.060Z,101782.31
2022-08-10T06:42:40.229Z,101783.90
2022-08-10T06:45:14.673Z,101781.36
2022-08-10T06:48:00.754Z,101776.45
2022-08-10T06:50:58.080Z,101771.08
2022-08-10T06:53:22.361Z,101770.36
2022-08-10T06:55:59.008Z,101772.27
2022-08-10T06:58:32.879Z,101776.65
2022-08-10T07:01:06.851Z,101770.45
2022-08-10T07:03:40.595Z,101772.39
2022-08-10T07:06:14.363Z,101772.37
2022-08-10T07:08:46.666Z,101768.19
2022-08-10T07:11:19.610Z,101767.88
2022-08-10T07:14:14.058Z,101770.30
2022-08-10T07:16:28.637Z,101765.02
2022-08-10T07:19:02.382Z,101764.09
2022-08-10T07:21:34.838Z,101761.61
2022-08-10T07:24:09.773Z,101761.41
2022-08-10T07:26:43.663Z,101752.31
2022-08-10T07:29:26.560Z,101752.13
2022-08-10T07:31:57.337Z,101751.27
2022-08-10T07:34:29.389Z,101749.13
2022-08-10T07:37:01.176Z,101750.77
2022-08-10T07:40:02.350Z,101756.11
2022-08-10T07:42:09.518Z,101749.13
2022-08-10T07:44:43.376Z,101746.38
2022-08-10T07:47:17.454Z,101749.75
2022-08-10T07:49:52.174Z,101749.75
2022-08-10T07:52:24.858Z,101745.55
2022-08-10T07:54:57.412Z,101744.44
2022-08-10T07:57:34.780Z,101739.59
2022-08-10T08:00:07.262Z,101739.55
2022-08-10T08:02:43.665Z,101739.70
2022-08-10T08:05:38.601Z,101737.73
2022-08-10T08:07:51.218Z,101732.42
2022-08-10T08:10:25.001Z,101732.56
2022-08-10T08:13:01.889Z,101730.59
2022-08-10T08:16:17.499Z,101738.06
2022-08-10T08:18:08.757Z,101737.36
2022-08-10T08:20:41.237Z,101728.19
2022-08-10T08:24:10.167Z,101734.16
2022-08-10T08:25:49.185Z,101732.52
2022-08-10T08:28:23.009Z,101723.20
2022-08-10T08:30:55.104Z,101733.98
2022-08-10T08:33:41.337Z,101723.20
2022-08-10T08:36:02.350Z,101714.16
2022-08-10T08:38:37.630Z,101717.30
2022-08-10T08:41:31.304Z,101720.55
2022-08-10T08:44:38.649Z,101725.98
2022-08-10T08:48:02.109Z,101713.65
2022-08-10T08:50:08.262Z,101709.73
2022-08-10T08:53:21.216Z,101725.16
2022-08-10T08:56:11.549Z,101722.75
2022-08-10T08:59:05.415Z,101715.06
2022-08-10T09:01:56.613Z,101721.17
2022-08-10T09:04:50.786Z,101705.92
2022-08-10T09:08:01.817Z,101720.66
2022-08-10T09:10:38.640Z,101712.61
2022-08-10T09:13:24.520Z,101715.01
2022-08-10T09:16:04.672Z,101709.64
2022-08-10T09:18:55.150Z,101707.52
2022-08-10T09:21:31.614Z,101707.22
2022-08-10T09:24:19.861Z,101696.98
2022-08-10T09:26:53.776Z,101697.96
2022-08-10T09:29:30.997Z,101712.33
2022-08-10T09:36:16.158Z,101704.23
2022-08-10T09:36:29.675Z,101708.63
2022-08-10T09:38:01.332Z,101704.58
2022-08-10T09:41:00.722Z,101706.07
2022-08-10T09:43:26.857Z,101705.66
2022-08-10T09:46:14.495Z,101704.06
2022-08-10T09:49:08.651Z,101700.23
2022-08-10T09:51:56.189Z,101692.91
2022-08-10T09:54:51.618Z,101690.92
2022-08-10T09:57:43.965Z,101686.46
2022-08-10T10:00:15.999Z,101693.40
2022-08-10T10:02:56.246Z,101681.95
2022-08-10T10:05:51.038Z,101675.67
2022-08-10T10:08:45.853Z,101682.81
2022-08-10T10:11:36.776Z,101677.58
2022-08-10T10:14:27.281Z,101679.48
2022-08-10T10:17:16.380Z,101670.30
2022-08-10T10:20:07.215Z,101660.69
2022-08-10T10:22:59.419Z,101665.84
2022-08-10T10:25:52.578Z,101662.64
2022-08-10T10:31:33.740Z,101655.48
2022-08-10T10:34:24.787Z,101656.38
2022-08-10T10:36:58.062Z,101661.19
2022-08-10T10:39:35.239Z,101664.09
2022-08-10T10:42:41.871Z,101664.34
2022-08-10T10:45:24.746Z,101664.70
2022-08-10T10:48:08.264Z,101659.18
2022-08-10T10:51:16.276Z,101648.91
2022-08-10T10:53:53.241Z,101652.42
2022-08-10T10:56:48.422Z,101646.17
2022-08-10T10:59:54.895Z,101640.15
2022-08-10T11:02:20.702Z,101642.68
2022-08-10T11:05:28.418Z,101640.62
2022-08-10T11:08:02.437Z,101635.98
2022-08-10T11:10:46.507Z,101643.44
2022-08-10T11:14:25.003Z,101641.47
2022-08-10T11:16:23.721Z,101643.68
2022-08-10T11:20:00.322Z,101646.70
2022-08-10T11:22:11.383Z,101643.02
2022-08-10T11:24:50.312Z,101633.87
2022-08-10T11:27:29.337Z,101641.95
2022-08-10T11:30:06.775Z,101629.28
2022-08-10T11:32:57.466Z,101629.12
2022-08-10T11:35:37.424Z,101621.16
2022-08-10T11:38:30.048Z,101623.52
2022-08-10T11:40:59.091Z,101611.24
2022-08-10T11:43:33.963Z,101620.55
2022-08-10T11:46:19.432Z,101622.88
2022-08-10T11:48:53.953Z,101620.41
2022-08-10T11:51:26.247Z,101626.92
2022-08-10T11:54:12.401Z,101614.93
2022-08-10T11:56:52.168Z,101621.45
2022-08-10T11:59:43.990Z,101622.88
2022-08-10T12:02:20.682Z,101625.67
2022-08-10T12:05:08.407Z,101620.40
2022-08-10T12:10:03.617Z,101623.59
2022-08-10T12:10:18.640Z,101614.20
2022-08-10T12:13:25.843Z,101622.20
2022-08-10T12:16:05.921Z,101614.30
2022-08-10T12:18:52.235Z,101606.36
2022-08-10T12:21:35.151Z,101607.11
2022-08-10T12:24:25.318Z,101587.89
2022-08-10T12:27:15.630Z,101594.74
2022-08-10T12:30:03.630Z,101595.66
2022-08-10T12:32:52.459Z,101586.20
2022-08-10T12:35:29.062Z,101591.55
2022-08-10T12:38:06.570Z,101588.95
2022-08-10T12:40:59.033Z,101592.16
2022-08-10T12:44:05.644Z,101591.62
2022-08-10T12:46:43.350Z,101594.31
2022-08-10T12:49:33.844Z,101583.54
2022-08-10T12:52:27.901Z,101584.65
2022-08-10T12:55:03.950Z,101580.47
2022-08-10T12:57:38.639Z,101573.50
2022-08-10T13:00:17.604Z,101568.56
2022-08-10T13:02:48.781Z,101571.76
2022-08-10T13:05:19.012Z,101564.60
2022-08-10T13:08:04.000Z,101561.12
2022-08-10T13:10:25.819Z,101553.47
2022-08-10T13:12:59.364Z,101561.12
2022-08-10T13:15:49.423Z,101549.13
2022-08-10T13:18:17.722Z,101553.30
2022-08-10T13:20:46.423Z,101540.75
2022-08-10T13:23:20.543Z,101545.92
2022-08-10T13:25:53.765Z,101545.20
2022-08-10T13:28:36.365Z,101540.05
2022-08-10T13:31:05.892Z,101527.05
2022-08-10T13:34:41.188Z,101531.52
2022-08-10T13:36:12.849Z,101534.28
2022-08-10T13:38:47.628Z,101529.98
2022-08-10T13:41:20.025Z,101519.58
2022-08-10T13:43:56.559Z,101523.38
2022-08-10T13:46:28.483Z,101519.52
2022-08-10T13:49:02.118Z,101513.88
2022-08-10T13:51:53.746Z,101516.50
2022-08-10T13:54:11.603Z,101524.04
2022-08-10T13:56:45.640Z,101520.16
2022-08-10T13:59:17.942Z,101525.32
2022-08-10T14:01:51.716Z,101520.03
2022-08-10T14:04:23.107Z,101512.88
2022-08-10T14:06:58.421Z,101513.31
2022-08-10T14:09:34.328Z,101511.59
2022-08-10T14:12:08.455Z,101504.39
2022-08-10T14:14:40.360Z,101503.54
2022-08-10T14:17:13.900Z,101505.11
2022-08-10T14:19:58.475Z,101506.84
2022-08-10T14:22:34.147Z,101500.20
2022-08-10T14:25:07.660Z,101502.09
2022-08-10T14:28:02.476Z,101501.20
2022-08-10T14:30:16.143Z,101502.38
2022-08-10T14:32:49.956Z,101501.72
2022-08-10T14:36:18.725Z,101503.08
2022-08-10T14:38:04.612Z,101493.59
2022-08-10T14:40:38.437Z,101489.84
2022-08-10T14:43:12.482Z,101490.14
2022-08-10T14:45:47.906Z,101493.12
2022-08-10T14:48:32.098Z,101485.63
2022-08-10T14:51:02.438Z,101484.08
2022-08-10T14:53:38.084Z,101483.64
2022-08-10T14:56:13.486Z,101477.84
2022-08-10T14:59:05.445Z,101470.95
2022-08-10T15:02:01.035Z,101489.09
2022-08-10T15:04:15.432Z,101475.56
2022-08-10T15:07:16.161Z,101484.22
2022-08-10T15:10:01.182Z,101477.59
2022-08-10T15:12:29.219Z,101468.48
2022-08-10T15:15:04.797Z,101468.78
2022-08-10T15:17:41.095Z,101454.05
2022-08-10T15:20:20.656Z,101466.60
2022-08-10T15:22:58.069Z,101460.70
2022-08-10T15:25:36.363Z,101464.00
2022-08-10T15:28:08.512Z,101468.75
2022-08-10T15:31:00.582Z,101463.15
2022-08-10T15:34:08.924Z,101462.67
2022-08-10T15:37:40.646Z,101468.19
2022-08-10T15:40:21.007Z,101468.04
2022-08-10T15:42:26.158Z,101464.03
2022-08-10T15:44:59.083Z,101461.81
2022-08-10T15:47:45.694Z,101458.53
2022-08-10T15:50:17.294Z,101457.91
2022-08-10T15:53:01.587Z,101461.31
2022-08-10T15:55:43.288Z,101456.98
2022-08-10T15:58:10.925Z,101456.58
2022-08-10T16:01:01.763Z,101456.00
2022-08-10T16:03:54.585Z,101453.02
2022-08-10T16:06:56.984Z,101449.91
2022-08-10T16:10:24.577Z,101451.34
2022-08-10T16:12:18.337Z,101457.27
2022-08-10T16:14:52.326Z,101456.23
2022-08-10T16:17:25.392Z,101455.89
2022-08-10T16:20:00.501Z,101450.80
2022-08-10T16:22:37.008Z,101452.62
2022-08-10T16:25:13.090Z,101445.35
2022-08-10T16:27:46.307Z,101451.79
2022-08-10T16:30:17.847Z,101454.06
2022-08-10T16:32:51.347Z,101448.02
2022-08-10T16:35:24.142Z,101448.78
2022-08-10T16:38:12.206Z,101455.00
2022-08-10T16:40:51.630Z,101445.73
2022-08-10T16:43:24.629Z,101439.54
2022-08-10T16:45:58.043Z,101447.91
2022-08-10T16:48:48.896Z,101447.45
2022-08-10T16:51:06.241Z,101455.06
2022-08-10T16:53:44.297Z,101448.02
2022-08-10T16:56:17.815Z,101450.65
2022-08-10T16:58:52.621Z,101445.47
2022-08-10T17:01:26.566Z,101434.41
2022-08-10T17:04:06.734Z,101443.86
2022-08-10T17:06:39.049Z,101442.17
2022-08-10T17:09:12.753Z,101446.70
2022-08-10T17:11:47.980Z,101437.77
2022-08-10T17:14:20.392Z,101441.95
2022-08-10T17:16:55.234Z,101443.45
2022-08-10T17:19:28.661Z,101441.90
2022-08-10T17:22:04.124Z,101433.42
2022-08-10T17:24:39.961Z,101442.14
2022-08-10T17:28:05.114Z,101446.86
2022-08-10T17:29:58.484Z,101438.00
2022-08-10T17:32:43.952Z,101441.88
2022-08-10T17:35:12.736Z,101448.27
2022-08-10T17:37:49.720Z,101445.50
2022-08-10T17:40:23.550Z,101440.67
2022-08-10T17:42:56.224Z,101438.06
2022-08-10T17:45:53.380Z,101439.88
2022-08-10T17:48:38.251Z,101434.34
2022-08-10T17:51:15.597Z,101436.48
2022-08-10T17:53:54.076Z,101438.98
2022-08-10T17:56:27.207Z,101442.22
2022-08-10T17:59:03.045Z,101447.32
2022-08-10T18:01:40.478Z,101441.97
2022-08-10T18:04:15.307Z,101447.42
2022-08-10T18:06:47.054Z,101445.67
2022-08-10T18:09:41.283Z,101447.28
2022-08-10T18:12:18.873Z,101443.45
2022-08-10T18:14:52.695Z,101446.06
2022-08-10T18:17:29.109Z,101449.89
2022-08-10T18:20:03.001Z,101454.09
2022-08-10T18:22:35.155Z,101447.44
2022-08-10T18:25:06.961Z,101454.80
2022-08-10T18:28:01.690Z,101450.27
2022-08-10T18:30:17.200Z,101454.19
2022-08-10T18:32:51.206Z,101456.01
2022-08-10T18:35:24.248Z,101464.64
2022-08-10T18:37:59.409Z,101461.60
2022-08-10T18:40:35.454Z,101465.95
2022-08-10T18:44:07.216Z,101457.52
2022-08-10T18:45:43.590Z,101462.78
2022-08-10T18:48:23.270Z,101458.53
2022-08-10T18:50:58.210Z,101466.48
2022-08-10T18:53:49.214Z,101461.82
2022-08-10T18:56:26.315Z,101476.12
2022-08-10T18:59:22.842Z,101461.69
2022-08-10T19:02:30.312Z,101472.14
2022-08-10T19:05:31.061Z,101474.80
2022-08-10T19:08:30.567Z,101480.08
2022-08-10T19:11:10.740Z,101477.77
2022-08-10T19:14:18.179Z,101473.80
2022-08-10T19:17:09.811Z,101474.30
2022-08-10T19:20:17.248Z,101478.20
2022-08-10T19:22:57.110Z,101479.34
2022-08-10T19:26:39.360Z,101474.68
2022-08-10T19:28:14.496Z,101474.39
2022-08-10T19:30:51.241Z,101475.67
2022-08-10T19:33:31.290Z,101482.73
2022-08-10T19:36:05.704Z,101480.52
2022-08-10T19:38:49.363Z,101487.20
2022-08-10T19:41:32.512Z,101478.08
2022-08-10T19:44:28.718Z,101480.89
2022-08-10T19:47:09.625Z,101478.67
2022-08-10T19:50:03.652Z,101469.91
2022-08-10T19:52:37.885Z,101482.97
2022-08-10T19:55:47.116Z,101487.02
2022-08-10T19:58:33.995Z,101482.05
2022-08-10T20:01:09.383Z,101486.12
2022-08-10T20:03:49.866Z,101495.14
2022-08-10T20:06:40.430Z,101491.53
2022-08-10T20:09:14.470Z,101488.80
2022-08-10T20:12:08.348Z,101487.16
2022-08-10T20:14:48.875Z,101490.30
2022-08-10T20:17:26.103Z,101493.27
2022-08-10T20:20:16.978Z,101484.92
2022-08-10T20:22:53.890Z,101497.30
2022-08-10T20:25:32.765Z,101498.35
2022-08-10T20:28:23.453Z,101492.76
2022-08-10T20:30:56.680Z,101492.25
2022-08-10T20:33:33.071Z,101494.52
2022-08-10T20:36:13.047Z,101490.95
2022-08-10T20:38:56.348Z,101492.58
2022-08-10T20:42:03.622Z,101488.75
2022-08-10T20:44:37.496Z,101490.14
2022-08-10T20:47:11.390Z,101488.58
2022-08-10T20:50:03.936Z,101485.70
2022-08-10T20:52:37.264Z,101487.87
2022-08-10T20:55:11.135Z,101490.64
2022-08-10T20:57:54.646Z,101492.61
2022-08-10T21:00:23.561Z,101490.55
2022-08-10T21:03:00.259Z,101488.81
2022-08-10T21:05:52.783Z,101491.86
2022-08-10T21:08:34.521Z,101490.02
2022-08-10T21:11:11.366Z,101493.16
2022-08-10T21:14:08.540Z,101488.73
2022-08-10T21:16:48.373Z,101493.78
2022-08-10T21:19:37.888Z,101495.69
2022-08-10T21:22:29.797Z,101488.22
2022-08-10T21:25:09.760Z,101482.23
2022-08-10T21:28:04.003Z,101490.53
2022-08-10T21:30:46.005Z,101483.06
2022-08-10T21:33:37.092Z,101481.56
2022-08-10T21:36:25.424Z,101483.48
2022-08-10T21:39:03.673Z,101480.06
2022-08-10T21:41:57.529Z,101476.44
2022-08-10T21:45:08.178Z,101486.89
2022-08-10T21:48:16.459Z,101488.80
2022-08-10T21:51:06.065Z,101491.01
2022-08-10T21:53:59.936Z,101487.54
2022-08-10T21:56:51.508Z,101493.04
2022-08-10T21:59:48.793Z,101497.16
2022-08-10T22:02:50.325Z,101499.47
2022-08-10T22:05:38.755Z,101509.31
2022-08-10T22:08:25.841Z,101500.02
2022-08-10T22:11:17.346Z,101498.86
2022-08-10T22:14:09.823Z,101501.48
2022-08-10T22:17:07.530Z,101496.80
2022-08-10T22:20:00.799Z,101506.09
2022-08-10T22:23:01.186Z,101495.87
2022-08-10T22:26:11.121Z,101489.83
2022-08-10T22:29:06.613Z,101492.45
2022-08-10T22:32:21.154Z,101489.20
2022-08-10T22:35:18.496Z,101496.58
2022-08-10T22:38:19.013Z,101483.89
2022-08-10T22:41:08.485Z,101490.07
2022-08-10T22:44:00.189Z,101495.95
2022-08-10T22:46:52.539Z,101498.09
2022-08-10T22:49:24.083Z,101503.06
2022-08-10T22:52:03.531Z,101499.28
2022-08-10T22:55:00.880Z,101495.44
2022-08-10T22:57:49.733Z,101503.83
2022-08-10T23:00:30.930Z,101494.18
2022-08-10T23:02:59.899Z,101494.33
2022-08-10T23:05:36.719Z,101499.91
2022-08-10T23:08:30.040Z,101495.05
2022-08-10T23:10:47.631Z,101487.85
2022-08-10T23:13:36.448Z,101484.44
2022-08-10T23:16:29.127Z,101493.91
2022-08-10T23:19:14.097Z,101489.59
2022-08-10T23:22:07.902Z,101493.25
2022-08-10T23:24:58.234Z,101500.09
2022-08-10T23:27:38.932Z,101491.81
2022-08-10T23:30:17.243Z,101499.47
2022-08-10T23:32:46.246Z,101492.75
2022-08-10T23:36:32.442Z,101499.98
2022-08-10T23:37:59.287Z,101498.02
2022-08-10T23:40:30.465Z,101501.52
2022-08-10T23:43:02.569Z,101501.23
2022-08-10T23:45:53.248Z,101497.30
2022-08-10T23:48:09.190Z,101505.45
2022-08-10T23:50:42.093Z,101506.77
2022-08-10T23:53:15.073Z,101498.34
2022-08-10T23:55:49.378Z,101505.46
2022-08-10T23:58:33.185Z,101503.73
